Time;durP1;ratioP1;P1;durP2;ratioP2;P2;SDS_P1;SDS_P2;PMS_P1;PMS_P2;Temp;Humidity;BMP_temperature;BMP_pressure;BME280_temperature;BME280_humidity;BME280_pressure;Samples;Min_cycle;Max_cycle;Signal;HPM_P1;HPM_P2
2022/06/20 00:01:36;;;;;;;11.77;3.20;;;;;;;23.01;46.81;98365.50;5058070;28;20047;-79
2022/06/20 00:04:02;;;;;;;3.72;2.38;;;;;;;22.85;47.02;98363.00;5023809;28;20044;-80
2022/06/20 00:06:33;;;;;;;5.50;2.47;;;;;;;22.88;46.55;98376.03;5024733;28;20055;-81
2022/06/20 00:09:00;;;;;;;6.32;2.50;;;;;;;22.84;46.54;98367.63;5076167;28;20051;-80
2022/06/20 00:11:32;;;;;;;10.55;2.42;;;;;;;23.11;46.25;98349.25;5043104;28;20082;-79
2022/06/20 00:13:57;;;;;;;3.50;2.00;;;;;;;22.90;45.93;98363.03;5058247;28;20499;-76
2022/06/20 00:16:24;;;;;;;5.85;1.90;;;;;;;22.94;46.20;98364.94;5039374;28;20044;-78
2022/06/20 00:18:53;;;;;;;2.55;1.83;;;;;;;22.94;46.09;98364.13;5074304;28;20509;-78
2022/06/20 00:21:22;;;;;;;10.80;2.60;;;;;;;22.88;46.25;98362.50;5069433;28;20126;-78
2022/06/20 00:23:48;;;;;;;4.13;2.30;;;;;;;22.64;46.78;98354.03;5070973;28;20035;-78
2022/06/20 00:26:15;;;;;;;9.27;2.33;;;;;;;22.79;47.46;98361.38;5049928;28;20058;-78
2022/06/20 00:28:41;;;;;;;9.07;2.67;;;;;;;22.66;48.45;98349.19;5081779;28;20123;-78
2022/06/20 00:31:07;;;;;;;7.35;2.60;;;;;;;22.38;48.61;98337.94;5038657;28;20127;-78
2022/06/20 00:33:33;;;;;;;5.72;2.65;;;;;;;22.47;48.95;98339.88;5039796;28;20127;-78
2022/06/20 00:36:00;;;;;;;5.32;2.78;;;;;;;22.46;48.81;98340.16;5023915;28;20032;-76
2022/06/20 00:38:26;;;;;;;3.72;2.60;;;;;;;22.41;49.44;98334.69;5023502;28;20040;-77
2022/06/20 00:40:55;;;;;;;6.93;2.72;;;;;;;22.57;48.43;98336.44;5023175;28;20082;-77
2022/06/20 00:43:30;;;;;;;6.57;2.80;;;;;;;22.50;48.31;98339.34;5039844;28;20047;-78
2022/06/20 00:46:23;;;;;;;4.88;2.80;;;;;;;22.62;48.49;98318.28;5048285;28;20062;-79
2022/06/20 00:49:34;;;;;;;8.23;3.10;;;;;;;22.66;48.27;98307.75;5062845;28;20129;-78
2022/06/20 00:52:38;;;;;;;6.82;3.00;;;;;;;22.65;47.99;98303.44;5079861;28;20046;-79
2022/06/20 00:55:47;;;;;;;4.13;2.92;;;;;;;22.75;47.56;98319.69;5079285;28;20104;-79
2022/06/20 00:58:37;;;;;;;9.38;2.90;;;;;;;22.60;48.05;98330.47;5050628;28;20138;-79
2022/06/20 01:01:29;;;;;;;9.40;2.67;;;;;;;22.54;48.07;98342.38;5065124;28;20097;-79
2022/06/20 01:04:29;;;;;;;4.03;2.58;;;;;;;22.36;48.36;98313.03;5079179;28;20050;-80
2022/06/20 01:07:23;;;;;;;6.95;2.80;;;;;;;22.16;49.20;98342.72;5065084;28;20096;-79
2022/06/20 01:10:09;;;;;;;6.88;3.58;;;;;;;22.27;48.97;98347.09;5065439;28;20075;-79
2022/06/20 01:12:57;;;;;;;6.50;3.20;;;;;;;22.45;48.69;98342.03;5078613;28;20125;-79
2022/06/20 01:15:42;;;;;;;8.23;3.20;;;;;;;22.41;48.94;98350.94;5050724;28;20055;-79
2022/06/20 01:18:30;;;;;;;6.28;3.05;;;;;;;22.20;48.99;98319.47;5064958;28;20579;-80
2022/06/20 01:21:20;;;;;;;6.97;3.33;;;;;;;22.44;48.97;98353.13;5065379;28;20432;-78
2022/06/20 01:25:06;;;;;;;8.00;3.20;;;;;;;22.53;48.69;98360.50;5065589;28;20078;-79
2022/06/20 01:27:52;;;;;;;8.27;3.63;;;;;;;22.44;48.25;98350.41;5003853;28;20053;-79
2022/06/20 01:30:40;;;;;;;8.07;2.92;;;;;;;22.49;48.21;98355.84;5052121;28;20105;-79
2022/06/20 01:33:25;;;;;;;4.72;3.00;;;;;;;22.36;48.50;98346.31;5065294;28;20054;-78
2022/06/20 01:39:15;;;;;;;4.32;2.30;;;;;;;22.17;48.66;98338.94;5068958;28;20101;-80
2022/06/20 01:42:20;;;;;;;7.22;2.58;;;;;;;22.31;48.24;98353.63;5065688;28;20059;-79
2022/06/20 01:45:57;;;;;;;7.32;2.33;;;;;;;22.27;47.63;98353.31;5053369;28;20143;-79
2022/06/20 01:48:18;;;;;;;5.88;3.13;;;;;;;22.25;47.81;98331.13;5078551;28;20047;-80
2022/06/20 01:51:03;;;;;;;6.10;2.40;;;;;;;22.30;47.52;98331.16;5064069;28;20123;-79
2022/06/20 01:53:48;;;;;;;4.10;2.25;;;;;;;22.30;47.20;98323.03;5049882;28;20113;-79
2022/06/20 01:56:32;;;;;;;5.88;2.28;;;;;;;22.19;47.04;98325.97;5063981;28;20136;-80
2022/06/20 01:59:21;;;;;;;4.63;2.35;;;;;;;22.44;46.67;98318.75;5077838;28;20055;-79
2022/06/20 02:02:05;;;;;;;7.65;2.75;;;;;;;22.27;47.21;98323.56;5062778;28;20054;-79
2022/06/20 02:04:50;;;;;;;4.18;2.00;;;;;;;22.31;46.86;98319.25;5064656;28;20055;-79
2022/06/20 02:07:35;;;;;;;5.65;2.47;;;;;;;22.31;46.83;98340.09;5078670;28;20112;-79
2022/06/20 02:10:25;;;;;;;4.00;2.10;;;;;;;22.45;46.67;98339.31;5064591;28;20047;-79
2022/06/20 02:13:10;;;;;;;5.30;2.70;;;;;;;22.23;46.89;98338.72;5079472;28;20051;-79
2022/06/20 02:16:00;;;;;;;5.53;2.40;;;;;;;22.38;46.51;98341.47;5080725;28;20066;-80
2022/06/20 02:18:48;;;;;;;6.03;2.17;;;;;;;22.32;46.46;98336.28;5050679;28;20070;-80
2022/06/20 02:21:34;;;;;;;9.48;6.07;;;;;;;22.26;46.77;98354.41;5049505;28;20113;-79
2022/06/20 02:24:21;;;;;;;6.15;3.15;;;;;;;22.18;46.58;98367.59;5064436;28;20209;-79
2022/06/20 02:27:29;;;;;;;6.18;2.35;;;;;;;22.27;46.41;98361.44;5092892;28;20070;-80
2022/06/20 02:30:14;;;;;;;3.88;2.22;;;;;;;22.09;47.08;98375.41;5064237;28;20067;-79
2022/06/20 02:33:04;;;;;;;7.28;3.00;;;;;;;22.26;46.35;98364.41;5063934;28;20055;-79
2022/06/20 02:35:49;;;;;;;6.07;2.47;;;;;;;22.16;46.66;98357.06;5077738;28;20415;-79
2022/06/20 02:38:34;;;;;;;8.30;2.60;;;;;;;22.06;46.98;98335.38;5077413;28;20169;-77
2022/06/20 02:41:23;;;;;;;5.95;2.65;;;;;;;22.04;47.06;98342.94;5062247;28;20055;-79
2022/06/20 02:44:13;;;;;;;5.78;2.60;;;;;;;22.08;47.32;98338.63;5076765;28;20047;-79
2022/06/20 02:46:58;;;;;;;5.53;2.45;;;;;;;21.90;47.38;98322.03;5049454;28;20058;-80
2022/06/20 02:49:43;;;;;;;8.07;3.15;;;;;;;21.89;47.30;98299.59;5077343;28;20059;-80
2022/06/20 02:52:51;;;;;;;8.77;3.10;;;;;;;22.07;47.47;98303.72;5062635;28;20073;-79
2022/06/20 02:55:37;;;;;;;9.85;3.15;;;;;;;21.89;47.31;98315.81;5076776;28;20101;-79
2022/06/20 02:58:25;;;;;;;5.65;3.20;;;;;;;21.71;47.70;98271.09;5077164;28;20059;-79
2022/06/20 03:01:45;;;;;;;10.23;4.68;;;;;;;22.03;47.11;98294.53;5064425;28;20101;-79
2022/06/20 03:04:33;;;;;;;6.60;2.83;;;;;;;22.06;47.23;98297.53;5063291;28;20101;-79
2022/06/20 03:07:26;;;;;;;6.80;2.67;;;;;;;22.10;47.30;98317.53;5063662;28;20047;-79
2022/06/20 03:10:16;;;;;;;9.85;3.42;;;;;;;22.23;47.05;98297.31;5051440;28;20109;-78
2022/06/20 03:13:00;;;;;;;6.22;2.60;;;;;;;22.07;46.85;98280.22;5062226;28;20058;-77
2022/06/20 03:15:52;;;;;;;3.75;2.25;;;;;;;22.32;46.64;98307.38;5048727;28;20050;-80
2022/06/20 03:18:41;;;;;;;8.38;2.80;;;;;;;22.09;47.00;98294.28;5062992;28;20427;-79
2022/06/20 03:21:28;;;;;;;8.48;2.70;;;;;;;22.21;46.83;98300.28;5062736;28;20055;-79
2022/06/20 03:24:16;;;;;;;10.05;2.63;;;;;;;22.48;46.08;98305.53;5048873;28;20134;-79
2022/06/20 03:27:03;;;;;;;5.93;2.30;;;;;;;22.51;46.53;98303.09;5048362;28;20412;-78
2022/06/20 03:29:54;;;;;;;8.30;2.65;;;;;;;22.59;46.27;98316.13;5063048;28;20152;-77
2022/06/20 03:32:38;;;;;;;4.47;2.38;;;;;;;22.32;46.45;98307.38;5076488;28;20673;-77
2022/06/20 03:35:23;;;;;;;5.07;2.38;;;;;;;22.32;46.16;98266.78;5048758;28;20097;-77
2022/06/20 03:38:07;;;;;;;6.45;2.22;;;;;;;22.55;45.69;98285.28;5062139;28;20054;-78
2022/06/20 03:40:51;;;;;;;4.00;2.10;;;;;;;22.27;45.41;98290.28;5062061;28;20139;-78
2022/06/20 03:43:37;;;;;;;3.17;2.20;;;;;;;22.34;45.79;98307.88;5048099;28;20518;-78
2022/06/20 03:46:29;;;;;;;4.70;2.30;;;;;;;22.34;46.06;98305.19;5076449;28;20104;-78
2022/06/20 03:49:27;;;;;;;4.55;2.55;;;;;;;22.38;46.20;98313.59;5076211;28;20097;-79
2022/06/20 03:52:20;;;;;;;3.72;2.20;;;;;;;22.34;46.04;98321.41;5047678;28;20097;-78
2022/06/20 03:55:25;;;;;;;4.90;2.30;;;;;;;22.20;46.48;98309.50;5061742;28;20067;-76
2022/06/20 03:58:28;;;;;;;7.38;2.40;;;;;;;22.28;46.33;98300.84;5047852;28;20473;-77
2022/06/20 04:01:15;;;;;;;6.32;2.30;;;;;;;22.23;46.78;98313.53;5062949;28;20051;-77
2022/06/20 04:04:10;;;;;;;6.63;2.20;;;;;;;22.25;46.66;98308.69;5047952;28;20097;-72
2022/06/20 04:07:01;;;;;;;5.32;2.65;;;;;;;22.31;46.17;98319.25;5076049;28;20559;-70
2022/06/20 04:13:35;;;;;;;7.40;2.35;;;;;;;22.37;46.10;98304.66;5074355;28;20034;-71
2022/06/20 04:16:29;;;;;;;4.82;2.45;;;;;;;22.23;45.99;98294.63;5081877;28;20129;-71
2022/06/20 04:19:19;;;;;;;8.10;2.90;;;;;;;22.41;46.35;98294.13;5091511;28;20144;-71
2022/06/20 04:22:11;;;;;;;8.00;2.53;;;;;;;22.53;46.33;98302.84;5092360;28;20096;-71
2022/06/20 04:25:12;;;;;;;7.10;2.42;;;;;;;22.72;46.03;98318.34;5096422;28;20151;-70
2022/06/20 04:28:24;;;;;;;3.90;2.25;;;;;;;22.74;45.23;98318.84;5098235;28;20529;-71
2022/06/20 04:31:17;;;;;;;5.50;2.75;;;;;;;22.85;45.31;98320.50;5070101;28;20059;-70
2022/06/20 04:34:22;;;;;;;7.50;2.88;;;;;;;23.05;44.97;98319.72;5098214;28;20065;-70
2022/06/20 04:37:23;;;;;;;7.32;2.33;;;;;;;23.01;44.82;98294.28;5084379;28;20549;-71
2022/06/20 04:40:20;;;;;;;7.70;2.28;;;;;;;23.07;44.55;98293.19;5082800;28;20054;-71
2022/06/20 04:43:11;;;;;;;7.60;2.47;;;;;;;23.18;44.25;98317.31;5083962;28;20057;-71
2022/06/20 04:46:14;;;;;;;4.63;2.50;;;;;;;23.34;44.60;98333.59;5098261;28;20047;-69
2022/06/20 04:49:00;;;;;;;3.88;2.17;;;;;;;23.12;44.32;98326.50;5112736;28;20541;-69
2022/06/20 04:51:47;;;;;;;5.00;2.30;;;;;;;23.35;44.26;98335.19;5083550;28;20100;-69
2022/06/20 04:54:31;;;;;;;8.38;2.30;;;;;;;23.04;44.30;98301.84;5097470;28;20104;-68
2022/06/20 04:57:18;;;;;;;6.40;2.42;;;;;;;23.15;43.82;98289.94;5102373;28;20422;-68
2022/06/20 05:00:05;;;;;;;7.80;2.28;;;;;;;23.36;43.85;98288.06;5083668;28;20046;-68
2022/06/20 05:02:50;;;;;;;6.10;2.40;;;;;;;23.22;43.68;98283.16;5083651;28;20054;-75
2022/06/20 05:05:40;;;;;;;4.68;2.03;;;;;;;23.74;42.75;98299.09;5068994;28;20054;-69
2022/06/20 05:08:29;;;;;;;3.42;2.00;;;;;;;23.97;42.41;98319.44;5069010;28;20112;-69
2022/06/20 05:11:36;;;;;;;7.22;2.47;;;;;;;24.01;42.07;98315.06;5097700;28;20517;-68
2022/06/20 05:14:29;;;;;;;9.30;2.60;;;;;;;24.05;41.83;98322.38;5097657;28;20055;-65
2022/06/20 05:17:21;;;;;;;10.05;2.22;;;;;;;24.17;41.75;98338.34;5083224;28;20112;-65
2022/06/20 05:20:18;;;;;;;8.27;2.20;;;;;;;24.29;41.29;98347.00;5111730;28;20058;-66
2022/06/20 05:23:06;;;;;;;6.80;2.83;;;;;;;24.22;41.52;98328.28;5097260;28;20550;-66
2022/06/20 05:25:51;;;;;;;8.48;2.22;;;;;;;24.28;41.29;98345.38;5097776;28;20468;-66
2022/06/20 05:28:37;;;;;;;3.95;2.05;;;;;;;24.51;41.05;98367.25;5082197;28;20046;-66
2022/06/20 05:31:35;;;;;;;3.95;2.15;;;;;;;24.31;41.07;98369.25;5099236;28;20414;-67
2022/06/20 05:34:40;;;;;;;8.90;2.40;;;;;;;24.36;41.36;98361.88;5096692;28;20073;-65
2022/06/20 05:37:38;;;;;;;5.38;2.53;;;;;;;24.12;40.94;98365.50;5111521;28;20039;-66
2022/06/20 05:40:06;;;;;;;7.20;2.28;;;;;;;24.05;42.40;98373.13;5038564;28;20055;-65
2022/06/20 05:42:31;;;;;;;9.80;2.15;;;;;;;23.96;41.03;98388.31;5055933;28;20189;-65
2022/06/20 05:44:57;;;;;;;7.65;2.30;;;;;;;23.82;41.43;98406.22;5039953;28;20126;-67
2022/06/20 05:47:26;;;;;;;8.40;2.90;;;;;;;23.59;41.89;98380.44;5056523;28;20058;-67
2022/06/20 05:50:08;;;;;;;8.15;2.13;;;;;;;23.72;41.35;98408.91;5039837;28;20059;-67
2022/06/20 05:52:34;;;;;;;7.40;2.22;;;;;;;23.45;42.48;98386.72;5073427;28;20127;-67
2022/06/20 05:55:14;;;;;;;7.78;2.35;;;;;;;23.59;42.03;98379.66;5090092;28;20048;-66
2022/06/20 05:57:41;;;;;;;9.23;2.53;;;;;;;23.44;42.00;98406.75;5073198;28;20411;-65
2022/06/20 06:00:16;;;;;;;8.48;2.72;;;;;;;23.48;42.51;98418.69;5072850;28;20044;-66
2022/06/20 06:02:51;;;;;;;6.93;2.35;;;;;;;23.53;42.79;98434.94;5073393;28;20134;-67
2022/06/20 06:05:36;;;;;;;5.20;2.58;;;;;;;23.46;43.17;98418.13;5069992;28;20054;-67
2022/06/20 06:08:20;;;;;;;4.55;2.22;;;;;;;23.42;43.02;98404.31;5072881;28;20044;-66
2022/06/20 06:11:15;;;;;;;5.75;2.15;;;;;;;23.34;43.12;98390.50;5039457;28;20106;-66
2022/06/20 06:13:48;;;;;;;13.35;2.78;;;;;;;23.17;43.91;98382.59;5089512;28;20044;-66
2022/06/20 06:16:47;;;;;;;6.50;2.28;;;;;;;23.18;43.50;98390.44;5091157;28;20143;-66
2022/06/20 06:19:22;;;;;;;5.75;2.55;;;;;;;23.33;43.24;98391.56;5073001;28;20526;-66
2022/06/20 06:21:48;;;;;;;7.18;2.88;;;;;;;23.11;43.96;98380.97;5089917;28;20048;-66
2022/06/20 06:24:20;;;;;;;8.32;2.55;;;;;;;23.30;43.49;98365.81;5072673;28;20048;-66
2022/06/20 06:26:47;;;;;;;7.82;2.60;;;;;;;23.34;43.04;98350.63;5055897;28;20487;-66
2022/06/20 06:29:18;;;;;;;5.32;2.63;;;;;;;23.79;42.78;98353.31;5072366;28;20040;-69
2022/06/20 06:31:46;;;;;;;6.22;2.28;;;;;;;23.82;42.53;98343.84;5056064;28;20031;-66
2022/06/20 06:34:30;;;;;;;6.00;2.40;;;;;;;24.44;41.29;98361.31;5072482;28;20044;-68
2022/06/20 06:37:08;;;;;;;7.75;2.20;;;;;;;24.59;40.87;98357.69;5056047;28;20048;-68
2022/06/20 06:39:43;;;;;;;5.22;2.00;;;;;;;24.61;40.46;98336.53;5055728;28;20050;-68
2022/06/20 06:42:13;;;;;;;6.40;2.28;;;;;;;25.20;39.82;98377.22;5072439;28;20100;-69
2022/06/20 06:44:43;;;;;;;9.18;2.40;;;;;;;25.38;39.26;98385.53;5055854;28;20055;-66
2022/06/20 06:47:23;;;;;;;10.77;4.60;;;;;;;25.62;38.53;98393.75;5071469;28;20047;-68
2022/06/20 06:50:13;;;;;;;7.50;2.17;;;;;;;25.74;38.42;98391.50;5072217;28;20044;-67
2022/06/20 06:52:47;;;;;;;8.35;2.53;;;;;;;25.85;38.13;98374.78;5072422;28;20051;-68
2022/06/20 06:55:38;;;;;;;7.50;2.03;;;;;;;26.22;37.61;98385.03;5055781;28;20058;-68
2022/06/20 06:58:18;;;;;;;;;;;;;;;26.40;37.30;98384.31;5072286;28;20043;-68
2022/06/20 07:00:48;;;;;;;6.27;2.37;;;;;;;26.87;36.35;98391.63;5071801;28;20444;-68
2022/06/20 07:03:22;;;;;;;7.15;2.10;;;;;;;27.32;35.49;98401.94;5038467;28;20130;-68
2022/06/20 07:05:55;;;;;;;6.63;2.08;;;;;;;27.86;33.33;98402.13;5072122;28;20040;-68
2022/06/20 07:08:34;;;;;;;7.63;2.67;;;;;;;28.16;32.58;98407.06;5038016;28;20063;-68
2022/06/20 07:11:12;;;;;;;6.88;2.35;;;;;;;28.05;32.20;98402.91;5055485;28;20140;-68
2022/06/20 07:13:44;;;;;;;8.65;2.20;;;;;;;28.04;32.54;98404.03;5089463;28;20566;-68
2022/06/20 07:16:18;;;;;;;11.07;2.42;;;;;;;28.18;32.27;98404.03;5071488;28;20047;-68
2022/06/20 07:18:49;;;;;;;8.00;2.38;;;;;;;28.08;32.18;98404.25;5038704;28;20036;-69
2022/06/20 07:21:32;;;;;;;7.53;2.78;;;;;;;28.45;32.00;98393.94;5055022;28;20491;-72
2022/06/20 07:24:01;;;;;;;9.32;2.33;;;;;;;28.57;32.02;98407.94;5054982;28;20043;-72
2022/06/20 07:26:31;;;;;;;10.27;2.00;;;;;;;28.86;31.27;98418.56;5071804;28;20040;-72
2022/06/20 07:29:02;;;;;;;7.70;2.67;;;;;;;28.95;30.35;98414.81;5071593;28;20047;-73
2022/06/20 07:31:28;;;;;;;7.55;2.22;;;;;;;29.17;29.19;98430.44;5054578;28;20043;-73
2022/06/20 07:34:16;;;;;;;7.00;1.85;;;;;;;29.67;28.62;98429.31;5038438;28;20054;-73
2022/06/20 07:36:56;;;;;;;11.63;2.10;;;;;;;30.11;27.79;98431.22;5055085;28;20044;-73
2022/06/20 07:39:40;;;;;;;2.85;1.83;;;;;;;30.70;27.96;98427.97;5054801;28;20044;-72
2022/06/20 07:42:33;;;;;;;11.65;2.05;;;;;;;30.64;27.80;98418.28;5053248;28;20113;-71
2022/06/20 07:45:23;;;;;;;11.50;2.10;;;;;;;30.82;27.67;98430.94;5038020;28;20110;-68
2022/06/20 07:47:55;;;;;;;6.15;1.92;;;;;;;30.76;27.41;98418.50;5055280;28;20063;-68
2022/06/20 07:50:34;;;;;;;6.47;2.03;;;;;;;30.58;26.36;98409.41;5071911;28;20067;-68
2022/06/20 07:53:11;;;;;;;10.68;2.08;;;;;;;30.42;27.53;98410.13;5066328;28;20040;-67
2022/06/20 07:55:43;;;;;;;6.38;2.00;;;;;;;30.34;27.93;98408.97;5073918;28;20107;-68
2022/06/20 07:58:48;;;;;;;6.90;1.92;;;;;;;30.14;27.55;98414.19;5089980;28;20047;-69
2022/06/20 08:01:44;;;;;;;9.77;1.83;;;;;;;30.68;26.78;98411.03;5075375;28;20044;-68
2022/06/20 08:04:11;;;;;;;5.22;2.00;;;;;;;31.96;25.14;98406.50;5035356;28;20060;-69
2022/06/20 08:06:43;;;;;;;5.43;2.00;;;;;;;33.89;22.52;98408.81;5072802;28;20032;-69
2022/06/20 08:09:56;;;;;;;7.95;2.00;;;;;;;36.20;19.67;98403.53;5035930;28;20079;-70
2022/06/20 08:12:30;;;;;;;8.10;2.00;;;;;;;38.26;17.44;98423.34;4969568;28;20048;-70
2022/06/20 08:15:17;;;;;;;5.82;2.08;;;;;;;37.75;17.43;98424.69;5056333;28;20515;-69
2022/06/20 08:17:42;;;;;;;8.43;2.28;;;;;;;37.09;18.25;98415.69;5036691;28;20052;-69
2022/06/20 08:20:10;;;;;;;5.53;1.88;;;;;;;36.87;17.77;98435.75;5036703;28;20040;-68
2022/06/20 08:22:58;;;;;;;7.38;2.10;;;;;;;36.53;17.90;98436.44;5070207;28;20523;-70
2022/06/20 08:25:35;;;;;;;6.25;1.77;;;;;;;36.11;18.57;98435.28;5070570;28;20055;-69
2022/06/20 08:28:14;;;;;;;7.38;1.83;;;;;;;36.37;18.33;98421.78;5054174;28;20048;-69
2022/06/20 08:31:03;;;;;;;8.13;1.85;;;;;;;36.82;18.07;98427.72;5069952;28;20185;-69
2022/06/20 08:33:57;;;;;;;5.38;1.80;;;;;;;38.29;16.23;98432.94;5037184;28;20040;-70
2022/06/20 08:36:32;;;;;;;5.55;1.60;;;;;;;39.01;14.93;98428.25;5053723;28;20048;-71
2022/06/20 08:39:04;;;;;;;12.57;2.00;;;;;;;38.96;15.19;98425.75;5070643;28;20047;-69
2022/06/20 08:42:04;;;;;;;7.15;1.65;;;;;;;38.54;15.72;98414.72;5053333;28;20040;-70
2022/06/20 08:44:43;;;;;;;7.47;2.17;;;;;;;37.95;16.26;98429.06;5052706;28;20044;-70
2022/06/20 08:47:40;;;;;;;9.45;1.90;;;;;;;38.29;15.84;98438.47;5053004;28;20051;-71
2022/06/20 08:50:40;;;;;;;5.50;2.00;;;;;;;40.32;14.35;98439.94;5069522;28;20172;-70
2022/06/20 08:53:44;;;;;;;10.30;1.83;;;;;;;40.97;14.09;98425.00;5036605;28;20043;-69
2022/06/20 08:56:21;;;;;;;7.88;2.03;;;;;;;41.55;13.58;98416.63;5070673;28;20127;-69
2022/06/20 08:59:08;;;;;;;5.43;1.60;;;;;;;41.88;12.80;98407.22;5054358;28;20063;-69
2022/06/20 09:02:04;;;;;;;8.05;1.77;;;;;;;43.11;11.80;98411.81;5070605;28;20075;-72
2022/06/20 09:04:49;;;;;;;5.63;1.83;;;;;;;40.42;13.45;98403.84;5054196;28;20123;-74
2022/06/20 09:07:53;;;;;;;8.90;2.20;;;;;;;39.77;14.06;98403.50;5037757;28;20044;-68
2022/06/20 09:10:24;;;;;;;7.93;2.00;;;;;;;39.04;14.46;98406.09;5010496;28;20056;-67
2022/06/20 09:13:25;;;;;;;9.18;2.20;;;;;;;38.51;15.16;98412.69;5069645;28;20051;-68
2022/06/20 09:16:13;;;;;;;8.48;1.88;;;;;;;37.15;16.30;98406.75;5059574;28;20164;-67
2022/06/20 09:18:53;;;;;;;8.77;2.05;;;;;;;35.61;18.11;98400.69;5036803;28;20044;-67
2022/06/20 09:21:48;;;;;;;5.18;1.60;;;;;;;35.14;18.17;98399.66;5053833;28;20524;-69
2022/06/20 09:24:26;;;;;;;7.55;2.10;;;;;;;34.52;19.51;98399.22;5053288;28;20041;-69
2022/06/20 09:26:54;;;;;;;4.78;1.58;;;;;;;33.78;20.48;98385.56;5020415;28;20138;-74
2022/06/20 09:29:20;;;;;;;6.47;1.90;;;;;;;33.04;21.50;98403.19;5070708;28;20439;-68
2022/06/20 09:32:13;;;;;;;3.72;1.48;;;;;;;32.93;21.44;98404.69;5053265;28;20048;-69
2022/06/20 09:34:57;;;;;;;6.60;1.88;;;;;;;32.40;21.94;98402.50;5061943;28;20051;-68
2022/06/20 09:37:44;;;;;;;9.43;2.20;;;;;;;31.97;21.90;98383.41;5078464;28;20044;-69
2022/06/20 09:40:33;;;;;;;6.97;1.70;;;;;;;31.35;22.66;98373.94;5061174;28;20068;-66
2022/06/20 09:43:33;;;;;;;7.68;2.15;;;;;;;31.48;22.43;98380.38;5070467;28;20040;-68
2022/06/20 09:46:07;;;;;;;3.05;1.90;;;;;;;32.51;21.32;98388.09;5071539;28;20403;-69
2022/06/20 09:49:07;;;;;;;7.28;1.55;;;;;;;34.66;19.06;98387.88;5070012;28;20052;-67
2022/06/20 09:51:56;;;;;;;8.60;1.55;;;;;;;34.56;19.49;98402.09;5069559;28;20381;-68
2022/06/20 09:54:25;;;;;;;2.90;1.42;;;;;;;33.68;19.79;98404.47;5068793;28;20155;-67
2022/06/20 09:57:18;;;;;;;5.93;1.80;;;;;;;33.46;20.77;98402.88;5050691;28;20711;-67
2022/06/20 09:59:54;;;;;;;6.55;1.77;;;;;;;32.70;21.97;98393.16;5050964;28;20584;-67
2022/06/20 10:02:32;;;;;;;5.95;1.55;;;;;;;32.68;21.98;98389.94;5066927;28;20098;-68
2022/06/20 10:05:21;;;;;;;7.78;1.95;;;;;;;32.58;22.19;98363.63;5067269;28;20118;-69
2022/06/20 10:07:58;;;;;;;7.47;2.00;;;;;;;32.67;22.27;98396.59;5068227;28;20095;-67
2022/06/20 10:10:38;;;;;;;4.40;1.80;;;;;;;32.51;22.42;98409.25;5076262;28;20056;-67
2022/06/20 10:13:41;;;;;;;4.00;1.75;;;;;;;31.75;23.86;98396.50;5054275;28;20040;-69
2022/06/20 10:16:47;;;;;;;9.75;1.95;;;;;;;30.99;25.14;98387.94;5055905;28;20097;-68
2022/06/20 10:19:22;;;;;;;10.70;1.73;;;;;;;30.46;25.85;98402.91;5047953;28;20047;-69
2022/06/20 10:21:52;;;;;;;12.00;2.47;;;;;;;30.02;26.54;98394.75;5071039;28;20059;-68
2022/06/20 10:24:29;;;;;;;5.07;1.60;;;;;;;30.00;26.14;98402.50;5054243;28;20575;-67
2022/06/20 10:27:27;;;;;;;8.07;1.88;;;;;;;30.07;26.16;98400.09;5037884;28;20278;-68
2022/06/20 10:30:07;;;;;;;9.05;1.88;;;;;;;29.87;26.92;98406.09;5055687;28;20036;-70
2022/06/20 10:32:39;;;;;;;8.57;2.20;;;;;;;28.84;29.20;98410.66;5055548;28;20078;-69
2022/06/20 10:35:39;;;;;;;4.05;2.08;;;;;;;28.63;29.73;98395.00;5072688;28;20089;-69
2022/06/20 10:38:31;;;;;;;6.33;2.67;;;;;;;28.09;31.25;98414.84;5044333;28;20039;-68
2022/06/20 10:41:05;;;;;;;7.10;2.10;;;;;;;27.84;31.22;98409.81;5087213;28;20047;-67
2022/06/20 10:44:08;;;;;;;8.18;2.35;;;;;;;27.82;31.89;98409.28;5089510;28;20119;-68
2022/06/20 10:46:40;;;;;;;10.80;2.10;;;;;;;27.67;31.51;98415.00;5078096;28;20047;-66
2022/06/20 10:49:18;;;;;;;6.28;2.17;;;;;;;27.57;31.83;98418.69;5085866;28;20039;-66
2022/06/20 10:52:20;;;;;;;11.32;6.13;;;;;;;27.90;31.76;98414.91;5108832;28;20202;-66
2022/06/20 10:55:23;;;;;;;6.30;2.75;;;;;;;27.11;33.20;98412.28;5104498;28;20079;-69
2022/06/20 10:58:16;;;;;;;9.38;2.80;;;;;;;27.17;33.41;98410.31;5075196;28;20582;-68
2022/06/20 11:00:47;;;;;;;11.80;4.10;;;;;;;27.06;34.16;98412.34;5056832;28;20423;-68
2022/06/20 11:03:45;;;;;;;10.25;3.75;;;;;;;27.01;34.72;98419.78;5073852;28;20134;-68
2022/06/20 11:06:46;;;;;;;10.20;2.97;;;;;;;27.20;34.09;98413.22;5064550;28;20043;-67
2022/06/20 11:09:24;;;;;;;8.73;3.20;;;;;;;27.16;34.62;98387.69;4989399;28;20067;-69
2022/06/20 11:12:01;;;;;;;8.45;2.72;;;;;;;27.07;34.57;98405.81;5065380;28;20044;-70
2022/06/20 11:14:40;;;;;;;5.10;2.63;;;;;;;27.05;34.36;98407.19;5051064;28;20528;-68
2022/06/20 11:17:36;;;;;;;10.98;2.90;;;;;;;27.53;34.19;98414.13;5018159;28;20051;-67
2022/06/20 11:20:08;;;;;;;8.77;2.58;;;;;;;26.97;35.02;98402.41;5049208;28;20040;-67
2022/06/20 11:22:43;;;;;;;5.38;2.50;;;;;;;27.13;34.07;98399.16;5049130;28;20131;-67
2022/06/20 11:25:32;;;;;;;6.95;2.25;;;;;;;27.07;34.27;98394.91;5033885;28;20574;-67
2022/06/20 11:28:09;;;;;;;8.82;2.47;;;;;;;26.95;34.33;98391.81;5033198;28;20428;-67
2022/06/20 11:30:46;;;;;;;12.45;2.97;;;;;;;26.69;35.45;98400.59;5050717;28;20568;-67
2022/06/20 11:36:16;;;;;;;8.65;2.65;;;;;;;26.35;36.44;98401.50;5050969;28;20055;-68
2022/06/20 11:38:51;;;;;;;8.35;2.55;;;;;;;26.27;36.01;98409.50;5067808;28;20083;-67
2022/06/20 11:41:37;;;;;;;9.93;2.70;;;;;;;26.62;35.84;98411.81;5051842;28;20155;-67
2022/06/20 11:44:16;;;;;;;10.90;2.47;;;;;;;26.64;36.10;98406.09;5018668;28;20131;-66
2022/06/20 11:47:35;;;;;;;6.18;2.40;;;;;;;26.16;36.88;98405.25;5068055;28;20048;-66
2022/06/20 11:50:17;;;;;;;8.80;2.47;;;;;;;25.98;37.17;98412.22;5024004;28;20051;-66
2022/06/20 11:53:02;;;;;;;11.15;2.40;;;;;;;25.66;37.48;98413.88;5051096;28;20048;-66
2022/06/20 11:55:47;;;;;;;7.60;2.50;;;;;;;25.75;37.85;98402.09;5034391;28;20079;-66
2022/06/20 11:58:31;;;;;;;11.30;2.63;;;;;;;25.55;37.78;98406.88;5068032;28;20050;-66
2022/06/20 12:01:02;;;;;;;5.03;2.17;;;;;;;25.38;37.97;98403.75;5034936;28;20685;-66
2022/06/20 12:03:34;;;;;;;5.32;1.95;;;;;;;24.95;38.42;98371.94;5056152;28;20048;-66
2022/06/20 12:06:06;;;;;;;12.90;2.67;;;;;;;25.22;38.59;98403.00;5034351;28;20411;-67
2022/06/20 12:08:53;;;;;;;8.98;2.22;;;;;;;25.51;38.70;98403.91;5051219;28;20070;-68
2022/06/20 12:11:31;;;;;;;9.20;2.22;;;;;;;25.46;37.91;98384.94;5034249;28;20063;-67
2022/06/20 12:14:24;;;;;;;7.85;2.38;;;;;;;25.64;38.01;98419.59;5050535;28;20045;-68
2022/06/20 12:16:51;;;;;;;6.68;2.20;;;;;;;24.70;39.57;98416.34;5051120;28;20510;-66
2022/06/20 12:25:04;;;;;;;6.18;2.00;;;;;;;25.11;38.87;98415.03;5036816;28;20040;-68
2022/06/20 12:27:32;;;;;;;5.93;2.30;;;;;;;24.96;38.96;98417.00;5051277;28;20037;-67
2022/06/20 12:30:00;;;;;;;3.95;1.85;;;;;;;24.81;39.23;98409.78;5034219;28;20135;-66
2022/06/20 12:32:28;;;;;;;7.45;2.50;;;;;;;24.72;39.50;98412.25;5034319;28;20055;-66
2022/06/20 12:35:05;;;;;;;7.18;2.30;;;;;;;24.47;40.27;98422.38;5050946;28;20102;-66
2022/06/20 12:37:39;;;;;;;9.77;2.75;;;;;;;24.65;40.38;98421.75;5067565;28;20048;-66
2022/06/20 12:40:08;;;;;;;9.85;2.55;;;;;;;24.20;41.27;98424.63;5051161;28;20118;-66
2022/06/20 12:42:46;;;;;;;7.10;2.38;;;;;;;24.41;40.55;98426.19;5050730;28;20048;-66
2022/06/20 12:45:16;;;;;;;10.00;2.78;;;;;;;24.58;40.37;98442.97;5051163;28;20492;-65
2022/06/20 12:48:01;;;;;;;7.97;2.42;;;;;;;24.99;39.55;98441.72;5054349;28;20044;-65
2022/06/20 12:50:37;;;;;;;6.25;2.33;;;;;;;25.11;39.93;98444.13;5037854;28;20089;-66
2022/06/20 12:53:32;;;;;;;9.38;2.58;;;;;;;25.25;39.48;98443.22;5071208;28;20132;-65
2022/06/20 12:56:13;;;;;;;12.25;2.35;;;;;;;25.28;39.56;98442.66;5072274;28;20075;-67
2022/06/20 12:59:09;;;;;;;;;;;;;;;25.19;38.92;98449.78;5055023;28;20049;-66
2022/06/20 13:01:44;;;;;;;12.60;2.60;;;;;;;25.14;39.29;98449.00;5029120;28;19920;-67
2022/06/20 13:04:58;;;;;;;8.38;2.20;;;;;;;25.33;39.29;98456.25;5054601;28;20451;-67
2022/06/20 13:07:45;;;;;;;8.30;2.20;;;;;;;25.24;39.91;98462.50;5063934;28;20551;-69
2022/06/20 13:10:40;;;;;;;6.93;2.50;;;;;;;25.39;39.33;98457.00;5053712;28;20420;-66